Wainwright, AK (99782)

2:19 PM AKDT on July 28, 2016 (GMT -0800)
Wainwright | | Change Station

Elev 39 ft 70.64 °N, 159.99 °W | Updated 26 minutes ago

Overcast
Overcast
43 °F
Feels Like 38 °F
N
9
Wind Variable Wind from SW

Today
High -- | Low -- °F
--% Chance of Precip.
Yesterday
High -- | Low -- °F
Precip. -- in
Pressure 29.67 in
Visibility 10.0 miles
Clouds Mostly Cloudy 4200 ft
Overcast 10000 ft
Windchill 38 °F
Dew Point 38 °F
Humidity 82%
Rainfall 0.00 in
Snow Depth Not available.
3:16 AM 2:34 AM
Waning Crescent, 28% visible
METAR PAWI 282153Z AUTO 23008KT 10SM BKN042 OVC100 06/03 A2966 RMK AO2 SLP045 T00610033 TSNO
Pressure 29.67 in
Visibility 10.0 miles
Clouds Mostly Cloudy 4200 ft
Overcast 10000 ft
Windchill 38 °F
Dew Point 38 °F
Humidity 82%
Rainfall 0.00 in
Snow Depth Not available.
3:16 AM 2:34 AM
Waning Crescent, 28% visible
METAR PAWI 282153Z AUTO 23008KT 10SM BKN042 OVC100 06/03 A2966 RMK AO2 SLP045 T00610033 TSNO

10-Day Weather Forecast

Almanac

Astronomy

Jul. 28, 2016 Rise Set
Actual Time
Civil Twilight
Nautical Twilight
Astronomical Twilight
Moon
Length of Visible Light
Length of Day
Tomorrow will be .
, % of the Moon is Illuminated

Today's Extremes

State Highs State Lows

Community

WunderPhotos

Upload Photos

1,928,219 photos uploaded!

WunderBlog® & News

Nearby

Air Quality

  Air Quality AQ Index Pollutant
Not available.

Snow Depth

Station Depth Elevation

Earthquake Activity

City Distance Mag. Time & Date
Minimum magnitude displayed is 2.5.

Coastal Water Temperatures

Place Temperature

Stations

Nearby Weather Stations

Station Location Temp. Windchill Dew Point Humidity Wind Precip. Elev Updated Type
                   

Watches & Warnings

There are currently no watches in effect.